Norse Mersey — IBEN — position and weather

sailwx.info

Track history (hours):
 
Tides and Currents Weather Stations Pressure Air Temp Water Temp Dewpoint Dewpoint Depression Visibility Wind Speed Wind Dir Waves Ship Positions

Norse Mersey

Operator: Norse Merchant Ferries

Last reported at 2019-Mar-22 00:19 UTC. Time now 2019-Mar-22 12:13 UTC.
Position N 39°07' E 009°14'.

Length 175 m; draft 5.6 m.

Type: Ship (hazmat cat D). MMSI: 247026000.

Date/timePositionNaut miles runAvg speedWind from/ knotsBaromVisibWave heightAir tempDewpointWater temp
2019-Mar-22 00:19N 39°07' E 009°14'414.6
2019-Mar-22 00:01N 39°09' E 009°09'4 1.3
2019-Mar-21 20:44N 39°13' E 009°06'1 2.7
2019-Mar-21 20:30N 39°12' E 009°07'612.4
2019-Mar-21 20:00N 39°07' E 009°12'2 0.0
2019-Mar-20 01:32N 39°07' E 009°14'015.8
2019-Mar-20 01:30N 39°07' E 009°14'713.7
2019-Mar-20 01:01N 39°11' E 009°07'1 0.6
2019-Mar-19 22:57N 39°13' E 009°06'0 0.0
2019-Mar-19 21:27N 39°13' E 009°06'0 0.5
2019-Mar-19 21:00N 39°12' E 009°07'5 9.7
2019-Mar-19 20:30N 39°09' E 009°10'3 0.1
2019-Mar-18 00:23N 39°07' E 009°14'615.1
2019-Mar-18 00:00N 39°10' E 009°08'3 2.8
2019-Mar-17 22:54N 39°13' E 009°06'0 0.0
2019-Mar-17 21:36N 39°13' E 009°06'0 0.0
2019-Mar-17 20:48N 39°13' E 009°06'0 0.0
2019-Mar-17 20:27N 39°13' E 009°06'0 0.0
2019-Mar-17 18:26N 39°13' E 009°06'1 3.2
2019-Mar-17 18:00N 39°11' E 009°07'7 0.2
2019-Mar-15 18:09N 39°07' E 009°14'216.2
2019-Mar-15 18:00N 39°08' E 009°12'611.6
2019-Mar-15 17:31N 39°12' E 009°07'0 0.3
2019-Mar-15 15:42N 39°13' E 009°06'0 0.0
2019-Mar-15 15:03N 39°13' E 009°06'0 0.0
2019-Mar-15 14:00N 39°13' E 009°06'0 0.0
2019-Mar-15 13:27N 39°13' E 009°06'0 0.0
2019-Mar-15 12:28N 39°13' E 009°06'1 2.4
2019-Mar-15 12:00N 39°12' E 009°06'4 8.9
2019-Mar-15 11:30N 39°09' E 009°11'1 1.7
2019-Mar-15 11:01N 39°09' E 009°11'2 3.4
2019-Mar-15 10:30N 39°08' E 009°12'1 2.0
2019-Mar-15 10:00N 39°09' E 009°12'1 1.2
2019-Mar-15 09:30N 39°09' E 009°12'3 2.5
2019-Mar-15 08:28N 39°08' E 009°16'1 2.7
2019-Mar-15 08:01N 39°08' E 009°14'1 1.2
2019-Mar-15 07:01N 39°08' E 009°16'0 3.1
2019-Mar-15 07:01N 39°08' E 009°16'3 6.8
2019-Mar-15 06:30N 39°08' E 009°11'2 3.1
2019-Mar-15 06:01N 39°06' E 009°12'2 0.0
2019-Mar-13 10:38N 39°07' E 009°14'215.5
2019-Mar-13 10:30N 39°08' E 009°12'611.4
2019-Mar-13 10:00N 39°12' E 009°07'1 0.8
2019-Mar-13 09:11N 39°13' E 009°06'0 0.0
2019-Mar-13 07:59N 39°13' E 009°06'0 0.0
2019-Mar-13 07:21N 39°13' E 009°06'1 1.6
2019-Mar-13 07:00N 39°12' E 009°07'611.9
2019-Mar-13 06:30N 39°08' E 009°12'157 5.8
2019-Mar-12 03:34N 41°40' E 010°03'114.9
2019-Mar-12 03:28N 41°41' E 010°04'  
Track history (hours):
 
Tides and Currents Weather Stations Pressure Air Temp Water Temp Dewpoint Dewpoint Depression Visibility Wind Speed Wind Dir Waves Ship Positions

Norse Mersey

Operator: Norse Merchant Ferries

Last reported at 2019-Mar-22 00:19 UTC. Time now 2019-Mar-22 12:13 UTC.
Position N 39°07' E 009°14'.

Length 175 m; draft 5.6 m.

Type: Ship (hazmat cat D). MMSI: 247026000.

Date/timePositionNaut miles runAvg speedWind from/ knotsBaromVisibWave heightAir tempDewpointWater temp
2019-Mar-22 00:19N 39°07' E 009°14'414.6
2019-Mar-22 00:01N 39°09' E 009°09'4 1.3
2019-Mar-21 20:44N 39°13' E 009°06'1 2.7
2019-Mar-21 20:30N 39°12' E 009°07'612.4
2019-Mar-21 20:00N 39°07' E 009°12'2 0.0
2019-Mar-20 01:32N 39°07' E 009°14'015.8
2019-Mar-20 01:30N 39°07' E 009°14'713.7
2019-Mar-20 01:01N 39°11' E 009°07'1 0.6
2019-Mar-19 22:57N 39°13' E 009°06'0 0.0
2019-Mar-19 21:27N 39°13' E 009°06'0 0.5
2019-Mar-19 21:00N 39°12' E 009°07'5 9.7
2019-Mar-19 20:30N 39°09' E 009°10'3 0.1
2019-Mar-18 00:23N 39°07' E 009°14'615.1
2019-Mar-18 00:00N 39°10' E 009°08'3 2.8
2019-Mar-17 22:54N 39°13' E 009°06'0 0.0
2019-Mar-17 21:36N 39°13' E 009°06'0 0.0
2019-Mar-17 20:48N 39°13' E 009°06'0 0.0
2019-Mar-17 20:27N 39°13' E 009°06'0 0.0
2019-Mar-17 18:26N 39°13' E 009°06'1 3.2
2019-Mar-17 18:00N 39°11' E 009°07'7 0.2
2019-Mar-15 18:09N 39°07' E 009°14'216.2
2019-Mar-15 18:00N 39°08' E 009°12'611.6
2019-Mar-15 17:31N 39°12' E 009°07'0 0.3
2019-Mar-15 15:42N 39°13' E 009°06'0 0.0
2019-Mar-15 15:03N 39°13' E 009°06'0 0.0
2019-Mar-15 14:00N 39°13' E 009°06'0 0.0
2019-Mar-15 13:27N 39°13' E 009°06'0 0.0
2019-Mar-15 12:28N 39°13' E 009°06'1 2.4
2019-Mar-15 12:00N 39°12' E 009°06'4 8.9
2019-Mar-15 11:30N 39°09' E 009°11'1 1.7
2019-Mar-15 11:01N 39°09' E 009°11'2 3.4
2019-Mar-15 10:30N 39°08' E 009°12'1 2.0
2019-Mar-15 10:00N 39°09' E 009°12'1 1.2
2019-Mar-15 09:30N 39°09' E 009°12'3 2.5
2019-Mar-15 08:28N 39°08' E 009°16'1 2.7
2019-Mar-15 08:01N 39°08' E 009°14'1 1.2
2019-Mar-15 07:01N 39°08' E 009°16'0 3.1
2019-Mar-15 07:01N 39°08' E 009°16'3 6.8
2019-Mar-15 06:30N 39°08' E 009°11'2 3.1
2019-Mar-15 06:01N 39°06' E 009°12'2 0.0
2019-Mar-13 10:38N 39°07' E 009°14'215.5
2019-Mar-13 10:30N 39°08' E 009°12'611.4
2019-Mar-13 10:00N 39°12' E 009°07'1 0.8
2019-Mar-13 09:11N 39°13' E 009°06'0 0.0
2019-Mar-13 07:59N 39°13' E 009°06'0 0.0
2019-Mar-13 07:21N 39°13' E 009°06'1 1.6
2019-Mar-13 07:00N 39°12' E 009°07'611.9
2019-Mar-13 06:30N 39°08' E 009°12'157 5.8
2019-Mar-12 03:34N 41°40' E 010°03'114.9
2019-Mar-12 03:28N 41°41' E 010°04'  

Dump ship's entire track history